Time;durP1;ratioP1;P1;durP2;ratioP2;P2;SDS_P1;SDS_P2;PMS_P1;PMS_P2;Temp;Humidity;BMP_temperature;BMP_pressure;BME280_temperature;BME280_humidity;BME280_pressure;Samples;Min_cycle;Max_cycle;Signal;HPM_P1;HPM_P2
2023/07/22 00:00:28;;;;;;;3.70;2.33;;;20.70;88.20;;;;;;5017132;28;20049;-73
2023/07/22 00:02:54;;;;;;;5.40;2.25;;;20.70;88.10;;;;;;5017109;28;20462;-73
2023/07/22 00:05:23;;;;;;;6.50;2.40;;;20.70;87.90;;;;;;5016380;28;20089;-73
2023/07/22 00:07:49;;;;;;;4.03;2.35;;;20.70;88.20;;;;;;4998594;28;20038;-72
2023/07/22 00:10:15;;;;;;;3.38;2.33;;;20.60;88.00;;;;;;4995035;28;20034;-72
2023/07/22 00:12:41;;;;;;;6.88;2.10;;;20.60;88.00;;;;;;4994187;28;20034;-72
2023/07/22 00:15:07;;;;;;;2.90;2.20;;;20.60;88.30;;;;;;4995090;28;20026;-72
2023/07/22 00:17:33;;;;;;;2.45;1.95;;;20.60;88.40;;;;;;4994399;28;20474;-72
2023/07/22 00:20:00;;;;;;;4.40;2.08;;;20.60;88.70;;;;;;4993711;28;20086;-73
2023/07/22 00:22:26;;;;;;;3.88;2.25;;;20.50;88.70;;;;;;4994221;28;20026;-72
2023/07/22 00:24:52;;;;;;;3.45;2.10;;;20.50;88.60;;;;;;4994074;28;20022;-71
2023/07/22 00:27:18;;;;;;;3.35;2.30;;;20.50;88.90;;;;;;4994813;28;20477;-72
2023/07/22 00:29:43;;;;;;;5.47;2.47;;;20.50;88.80;;;;;;4994005;28;20105;-74
2023/07/22 00:32:09;;;;;;;2.83;2.10;;;20.50;89.00;;;;;;4994271;28;20166;-73
2023/07/22 00:34:36;;;;;;;3.50;2.30;;;20.50;89.30;;;;;;4994315;28;20022;-72
2023/07/22 00:37:02;;;;;;;5.85;2.40;;;20.40;89.10;;;;;;4993957;28;20026;-73
2023/07/22 00:39:28;;;;;;;3.97;2.40;;;20.40;89.60;;;;;;4994182;28;20023;-73
2023/07/22 00:41:53;;;;;;;4.38;2.30;;;20.40;89.60;;;;;;4993684;28;20109;-73
2023/07/22 00:44:19;;;;;;;4.63;2.40;;;20.40;89.80;;;;;;4976845;28;20022;-73
2023/07/22 00:46:45;;;;;;;2.65;2.10;;;20.40;89.90;;;;;;4993653;28;20451;-72
2023/07/22 00:49:14;;;;;;;4.30;2.10;;;20.40;90.00;;;;;;4993749;28;20026;-73
2023/07/22 00:51:40;;;;;;;4.50;2.08;;;20.40;90.00;;;;;;4993546;28;20045;-72
2023/07/22 00:54:06;;;;;;;4.47;2.42;;;20.30;90.00;;;;;;4994949;28;20054;-72
2023/07/22 00:56:35;;;;;;;4.25;2.28;;;20.30;90.20;;;;;;4993875;28;20027;-73
2023/07/22 00:59:01;;;;;;;8.13;2.38;;;20.30;90.30;;;;;;4993387;28;20062;-73
2023/07/22 01:01:27;;;;;;;5.18;2.83;;;20.20;90.30;;;;;;4993885;28;20403;-73
2023/07/22 01:03:53;;;;;;;3.47;2.47;;;20.30;90.40;;;;;;4993372;28;20339;-73
2023/07/22 01:06:20;;;;;;;4.88;2.95;;;20.20;90.60;;;;;;4993722;28;20039;-73
2023/07/22 01:08:46;;;;;;;4.78;2.33;;;20.20;90.40;;;;;;4993346;28;20030;-73
2023/07/22 01:11:12;;;;;;;5.68;2.50;;;20.20;90.60;;;;;;4993740;28;20050;-73
2023/07/22 01:13:38;;;;;;;4.95;2.33;;;20.20;90.70;;;;;;4993465;28;20057;-72
2023/07/22 01:16:05;;;;;;;5.93;2.35;;;20.20;90.80;;;;;;4976234;28;20018;-73
2023/07/22 01:18:35;;;;;;;4.07;2.50;;;20.20;90.90;;;;;;4993315;28;20068;-73
2023/07/22 01:21:01;;;;;;;3.35;2.17;;;20.10;90.90;;;;;;4993501;28;20357;-73
2023/07/22 01:23:27;;;;;;;3.70;2.60;;;20.10;91.00;;;;;;4993556;28;20022;-73
2023/07/22 01:25:53;;;;;;;2.22;2.03;;;20.10;91.00;;;;;;4993214;28;20030;-72
2023/07/22 01:28:21;;;;;;;3.20;2.17;;;20.10;91.10;;;;;;4993846;28;20026;-73
2023/07/22 01:30:48;;;;;;;4.15;2.40;;;20.10;91.10;;;;;;4994990;28;20053;-73
2023/07/22 01:33:14;;;;;;;3.70;2.65;;;20.10;91.20;;;;;;4998668;28;20431;-74
2023/07/22 01:35:40;;;;;;;3.00;2.22;;;20.10;91.20;;;;;;4997942;28;20019;-72
2023/07/22 01:38:08;;;;;;;3.65;2.55;;;20.10;91.30;;;;;;4994469;28;20101;-72
2023/07/22 01:40:33;;;;;;;4.07;2.60;;;20.10;91.40;;;;;;4993014;28;20101;-72
2023/07/22 01:42:59;;;;;;;3.20;2.30;;;20.00;91.40;;;;;;4992883;28;20117;-72
2023/07/22 01:45:25;;;;;;;5.53;2.20;;;20.00;91.50;;;;;;4993361;28;20101;-72
2023/07/22 01:47:51;;;;;;;3.58;2.70;;;20.00;91.50;;;;;;4992954;28;20026;-71
2023/07/22 01:50:18;;;;;;;2.55;2.20;;;20.00;91.50;;;;;;4996335;28;20019;-73
2023/07/22 01:52:44;;;;;;;6.10;2.70;;;20.00;91.50;;;;;;4979312;28;20041;-71
2023/07/22 01:55:10;;;;;;;4.63;2.28;;;20.00;91.40;;;;;;4997187;28;20022;-72
2023/07/22 01:57:36;;;;;;;5.10;2.95;;;20.00;91.70;;;;;;4997515;28;20027;-72
2023/07/22 02:00:05;;;;;;;3.05;2.20;;;20.00;91.70;;;;;;4999424;28;20473;-72
2023/07/22 02:02:30;;;;;;;4.30;2.30;;;20.00;91.60;;;;;;4997166;28;20096;-74
2023/07/22 02:04:56;;;;;;;3.80;2.30;;;20.00;91.70;;;;;;4996498;28;20105;-73
2023/07/22 02:07:22;;;;;;;6.40;2.83;;;20.00;91.80;;;;;;4996550;28;20049;-73
2023/07/22 02:09:47;;;;;;;3.30;2.63;;;20.00;91.80;;;;;;4996620;28;20534;-73
2023/07/22 02:12:13;;;;;;;3.88;2.65;;;20.00;91.90;;;;;;4996938;28;20050;-73
2023/07/22 02:14:39;;;;;;;3.42;2.63;;;19.90;91.90;;;;;;4996387;28;20046;-73
2023/07/22 02:17:04;;;;;;;2.97;2.58;;;19.90;92.10;;;;;;4996463;28;20061;-73
2023/07/22 02:19:30;;;;;;;5.60;2.80;;;19.90;91.90;;;;;;4996544;28;20033;-71
2023/07/22 02:21:56;;;;;;;6.63;3.28;;;19.90;92.10;;;;;;4996270;28;20085;-74
2023/07/22 02:24:23;;;;;;;4.97;3.03;;;19.90;92.00;;;;;;4996435;28;20443;-73
2023/07/22 02:26:48;;;;;;;4.00;2.67;;;19.90;92.10;;;;;;4995976;28;20367;-72
2023/07/22 02:29:14;;;;;;;5.18;2.53;;;19.90;92.20;;;;;;4996597;28;20021;-72
2023/07/22 02:31:39;;;;;;;3.53;2.60;;;19.90;92.20;;;;;;4996586;28;20034;-72
2023/07/22 02:34:05;;;;;;;6.38;2.95;;;19.80;92.20;;;;;;4995708;28;20473;-72
2023/07/22 02:36:31;;;;;;;5.53;2.85;;;19.80;92.40;;;;;;4996643;28;20022;-72
2023/07/22 02:38:57;;;;;;;4.53;2.63;;;19.80;92.50;;;;;;4996407;28;20031;-72
2023/07/22 02:41:22;;;;;;;3.63;2.53;;;19.80;92.60;;;;;;4996060;28;20046;-73
2023/07/22 02:43:48;;;;;;;6.63;2.90;;;19.80;92.60;;;;;;4995950;28;20443;-72
2023/07/22 02:46:13;;;;;;;5.75;2.97;;;19.70;92.80;;;;;;4996615;28;20030;-72
2023/07/22 02:48:39;;;;;;;8.35;3.13;;;19.70;92.80;;;;;;4996260;28;20018;-73
2023/07/22 02:51:09;;;;;;;5.05;2.90;;;19.70;92.90;;;;;;4995874;28;20458;-74
2023/07/22 02:53:38;;;;;;;3.35;2.47;;;19.70;92.80;;;;;;4996217;28;20026;-72
2023/07/22 02:56:06;;;;;;;4.20;2.83;;;19.70;92.70;;;;;;4995686;28;20565;-72
2023/07/22 02:58:33;;;;;;;4.68;3.08;;;19.70;92.80;;;;;;4995970;28;20459;-72
2023/07/22 03:00:58;;;;;;;4.22;2.63;;;19.70;92.80;;;;;;4998193;28;20096;-72
2023/07/22 03:03:24;;;;;;;4.60;2.78;;;19.70;92.80;;;;;;5015319;28;20451;-72
2023/07/22 03:05:50;;;;;;;6.32;2.85;;;19.70;92.90;;;;;;5015031;28;20137;-73
2023/07/22 03:08:17;;;;;;;4.28;2.58;;;19.70;92.80;;;;;;5015777;28;20022;-72
2023/07/22 03:10:48;;;;;;;4.57;2.90;;;19.70;93.00;;;;;;5015281;28;20029;-72
2023/07/22 03:13:16;;;;;;;4.18;3.03;;;19.70;93.10;;;;;;5015729;28;20370;-73
2023/07/22 03:15:42;;;;;;;6.35;3.15;;;19.70;93.10;;;;;;5015039;28;20036;-73
2023/07/22 03:18:09;;;;;;;4.95;2.63;;;19.70;93.00;;;;;;5014865;28;20048;-73
2023/07/22 03:20:36;;;;;;;4.00;2.72;;;19.60;93.00;;;;;;5015276;28;20065;-73
2023/07/22 03:23:02;;;;;;;7.45;3.03;;;19.60;93.10;;;;;;5014787;28;20026;-72
2023/07/22 03:25:28;;;;;;;5.80;2.97;;;19.60;93.20;;;;;;5014888;28;20105;-72
2023/07/22 03:27:54;;;;;;;5.85;2.78;;;19.60;93.10;;;;;;5014439;28;20022;-72
2023/07/22 03:30:22;;;;;;;3.83;2.75;;;19.60;93.10;;;;;;5014788;28;20017;-73
2023/07/22 03:32:50;;;;;;;4.10;2.55;;;19.70;93.10;;;;;;5015040;28;20030;-73
2023/07/22 03:35:18;;;;;;;3.60;2.72;;;19.60;93.30;;;;;;5014636;28;20477;-73
2023/07/22 03:37:44;;;;;;;3.20;2.50;;;19.60;93.20;;;;;;5014935;28;20026;-73
2023/07/22 03:40:30;;;;;;;5.22;2.55;;;19.60;92.90;;;;;;5014219;28;20478;-73
2023/07/22 03:42:57;;;;;;;5.88;2.90;;;19.70;92.70;;;;;;5014407;28;20117;-73
2023/07/22 03:45:23;;;;;;;4.60;2.85;;;19.60;92.60;;;;;;5014783;28;20115;-72
2023/07/22 03:47:57;;;;;;;5.82;2.72;;;19.60;92.60;;;;;;5014597;28;20026;-73
2023/07/22 03:50:23;;;;;;;4.20;2.60;;;19.60;92.50;;;;;;5014775;28;20373;-73
2023/07/22 03:52:48;;;;;;;5.47;2.70;;;19.60;92.70;;;;;;5014897;28;20026;-73
2023/07/22 03:55:14;;;;;;;3.50;2.60;;;19.60;92.20;;;;;;5014539;28;20438;-73
2023/07/22 03:57:40;;;;;;;5.20;2.67;;;19.60;92.10;;;;;;4996981;28;20426;-73
2023/07/22 04:00:09;;;;;;;5.38;2.80;;;19.60;91.80;;;;;;5013874;28;20034;-74
2023/07/22 04:02:34;;;;;;;4.15;2.60;;;19.60;91.60;;;;;;5014002;28;20474;-73
2023/07/22 04:05:00;;;;;;;2.97;2.20;;;19.70;91.50;;;;;;5013766;28;20209;-73
2023/07/22 04:07:26;;;;;;;4.43;2.63;;;19.70;91.60;;;;;;5014622;28;20073;-73
2023/07/22 04:09:51;;;;;;;6.35;2.55;;;19.70;91.30;;;;;;5010923;28;20466;-73
2023/07/22 04:12:17;;;;;;;2.60;2.03;;;19.70;91.40;;;;;;5013667;28;20068;-74
2023/07/22 04:14:43;;;;;;;5.40;2.40;;;19.80;91.20;;;;;;5014143;28;20080;-72
2023/07/22 04:17:09;;;;;;;5.75;3.00;;;19.70;90.80;;;;;;5013817;28;20026;-72
2023/07/22 04:19:34;;;;;;;4.45;2.40;;;19.80;91.00;;;;;;5014121;28;20100;-72
2023/07/22 04:22:03;;;;;;;7.82;2.60;;;19.80;90.90;;;;;;5008422;28;20113;-72
2023/07/22 04:24:32;;;;;;;3.05;2.20;;;19.80;90.90;;;;;;4994403;28;20019;-72
2023/07/22 04:26:59;;;;;;;3.83;2.38;;;19.90;90.60;;;;;;4993780;28;20030;-72
2023/07/22 04:29:24;;;;;;;2.67;2.22;;;19.80;90.30;;;;;;4994371;28;20076;-71
2023/07/22 04:31:50;;;;;;;6.70;2.50;;;19.80;90.20;;;;;;4994372;28;20030;-73
2023/07/22 04:34:15;;;;;;;4.10;2.13;;;19.80;90.10;;;;;;4993910;28;20030;-73
2023/07/22 04:36:41;;;;;;;9.73;2.70;;;19.90;90.20;;;;;;4994326;28;20026;-74
2023/07/22 04:39:07;;;;;;;5.78;2.20;;;20.00;89.80;;;;;;4993973;28;20565;-73
2023/07/22 04:41:33;;;;;;;4.15;2.40;;;20.00;89.70;;;;;;4994283;28;20034;-73
2023/07/22 04:43:59;;;;;;;3.28;2.20;;;20.10;88.60;;;;;;4993783;28;20374;-73
2023/07/22 04:46:25;;;;;;;3.50;2.50;;;20.10;88.10;;;;;;4994369;28;20050;-73
2023/07/22 04:48:55;;;;;;;2.97;2.10;;;20.10;87.70;;;;;;4993991;28;20065;-73
2023/07/22 04:51:20;;;;;;;6.18;2.30;;;20.10;88.00;;;;;;4993929;28;20037;-73
2023/07/22 04:53:46;;;;;;;4.07;2.33;;;20.10;87.30;;;;;;4993999;28;20101;-74
2023/07/22 04:56:11;;;;;;;4.82;2.20;;;20.30;87.10;;;;;;4993834;28;20026;-73
2023/07/22 04:58:37;;;;;;;3.67;2.45;;;20.40;87.60;;;;;;4993949;28;20068;-73
2023/07/22 05:01:04;;;;;;;3.97;2.20;;;20.60;86.30;;;;;;4993289;28;20026;-73
2023/07/22 05:03:29;;;;;;;3.28;2.17;;;20.70;85.20;;;;;;4993844;28;20414;-73
2023/07/22 05:05:55;;;;;;;3.47;2.30;;;20.90;84.90;;;;;;4994758;28;20050;-72
2023/07/22 05:08:21;;;;;;;4.63;2.60;;;21.10;83.10;;;;;;4993710;28;20029;-72
2023/07/22 05:10:46;;;;;;;6.00;2.35;;;21.20;82.30;;;;;;4993831;28;20061;-72
2023/07/22 05:13:12;;;;;;;6.72;2.30;;;21.40;81.80;;;;;;4993278;28;20442;-72
2023/07/22 05:15:38;;;;;;;4.40;2.40;;;21.60;81.00;;;;;;4993938;28;20056;-73
2023/07/22 05:18:03;;;;;;;3.55;2.30;;;21.80;79.70;;;;;;4993294;28;20101;-72
2023/07/22 05:20:29;;;;;;;5.15;2.28;;;22.00;79.00;;;;;;4993912;28;20029;-72
2023/07/22 05:22:55;;;;;;;3.28;2.20;;;22.40;78.20;;;;;;4993572;28;20034;-73
2023/07/22 05:25:21;;;;;;;4.82;2.65;;;22.70;75.70;;;;;;4993215;28;20034;-73
2023/07/22 05:27:46;;;;;;;6.28;2.33;;;23.10;75.70;;;;;;4993537;28;20022;-73
2023/07/22 05:30:12;;;;;;;3.65;2.10;;;23.40;73.30;;;;;;4993103;28;20022;-73
2023/07/22 05:32:37;;;;;;;3.22;2.20;;;23.80;70.90;;;;;;4993585;28;20026;-73
2023/07/22 05:35:04;;;;;;;6.30;2.40;;;24.10;70.00;;;;;;4993124;28;20027;-73
2023/07/22 05:37:30;;;;;;;3.17;2.17;;;24.70;68.80;;;;;;4993367;28;20109;-73
2023/07/22 05:39:56;;;;;;;3.75;2.50;;;25.20;65.90;;;;;;4993132;28;20443;-73
2023/07/22 05:42:22;;;;;;;3.35;2.38;;;25.30;65.20;;;;;;4992666;28;20050;-73
2023/07/22 05:44:48;;;;;;;4.80;2.58;;;25.80;64.30;;;;;;4993203;28;20097;-73
2023/07/22 05:47:14;;;;;;;4.28;2.42;;;26.30;62.40;;;;;;4992972;28;20030;-73
2023/07/22 05:49:39;;;;;;;7.47;2.25;;;26.90;61.40;;;;;;4993465;28;20023;-73
2023/07/22 05:52:05;;;;;;;3.60;1.70;;;27.20;58.70;;;;;;4992747;28;20033;-73
2023/07/22 05:54:31;;;;;;;4.28;2.45;;;27.60;58.50;;;;;;4993167;28;20022;-72
2023/07/22 05:56:57;;;;;;;4.57;2.17;;;27.70;56.80;;;;;;4993217;28;20352;-73
2023/07/22 05:59:22;;;;;;;7.65;1.90;;;28.00;56.40;;;;;;4993655;28;20415;-72
2023/07/22 06:01:48;;;;;;;6.88;2.78;;;28.60;54.50;;;;;;4993797;28;20034;-72
2023/07/22 06:04:14;;;;;;;6.85;2.47;;;28.70;54.00;;;;;;4992753;28;20025;-73
2023/07/22 06:06:39;;;;;;;4.07;2.30;;;28.60;53.80;;;;;;4993331;28;20053;-73
2023/07/22 06:09:05;;;;;;;4.85;2.17;;;28.80;53.00;;;;;;4994907;28;20108;-72
2023/07/22 06:11:30;;;;;;;4.75;2.60;;;28.90;52.90;;;;;;4994523;28;20522;-73
2023/07/22 06:13:56;;;;;;;5.15;2.30;;;29.20;52.10;;;;;;4995364;28;20022;-73
2023/07/22 06:16:22;;;;;;;3.45;2.38;;;29.80;53.10;;;;;;4992612;28;20029;-72
2023/07/22 06:18:48;;;;;;;3.58;2.13;;;30.20;50.20;;;;;;4992950;28;20185;-73
2023/07/22 06:21:14;;;;;;;5.03;2.05;;;30.70;49.30;;;;;;4992483;28;20068;-72
2023/07/22 06:23:39;;;;;;;3.53;1.98;;;30.40;48.50;;;;;;4992666;28;20431;-73
2023/07/22 06:26:05;;;;;;;5.05;2.42;;;30.10;48.40;;;;;;4992012;28;20038;-72
2023/07/22 06:28:30;;;;;;;2.83;2.03;;;30.40;47.80;;;;;;4992635;28;20030;-73
2023/07/22 06:30:57;;;;;;;4.75;1.83;;;30.50;47.70;;;;;;4992615;28;20331;-73
2023/07/22 06:33:23;;;;;;;3.20;1.92;;;30.60;47.10;;;;;;4992242;28;20482;-72
2023/07/22 06:35:48;;;;;;;2.25;1.63;;;30.90;47.30;;;;;;4994666;28;20130;-72
2023/07/22 06:38:14;;;;;;;3.60;1.88;;;31.10;44.70;;;;;;4996226;28;20054;-72
2023/07/22 06:40:40;;;;;;;3.30;2.00;;;31.30;44.60;;;;;;4996308;28;20026;-72
2023/07/22 06:43:06;;;;;;;3.58;2.28;;;31.20;45.70;;;;;;4995896;28;20049;-73
2023/07/22 06:45:32;;;;;;;3.30;1.75;;;31.90;45.50;;;;;;4996018;28;20014;-72
2023/07/22 06:47:58;;;;;;;2.22;1.70;;;31.80;43.30;;;;;;4996439;28;20072;-72
2023/07/22 06:50:24;;;;;;;5.38;1.70;;;31.50;42.10;;;;;;4995815;28;20058;-73
2023/07/22 06:52:49;;;;;;;3.95;1.70;;;31.50;41.00;;;;;;4996154;28;20034;-73
2023/07/22 06:55:15;;;;;;;2.70;1.75;;;31.00;41.30;;;;;;4995466;28;20030;-72
2023/07/22 06:57:41;;;;;;;1.75;1.40;;;30.80;43.00;;;;;;4996285;28;20018;-73
2023/07/22 07:00:09;;;;;;;2.40;1.70;;;31.50;42.70;;;;;;4996309;28;20029;-73
2023/07/22 07:02:35;;;;;;;6.32;1.95;;;32.10;41.60;;;;;;4996930;28;20037;-72
2023/07/22 07:05:01;;;;;;;4.93;1.77;;;32.40;40.80;;;;;;4996778;28;20117;-74
2023/07/22 07:07:27;;;;;;;4.07;1.75;;;32.60;41.10;;;;;;4996392;28;20471;-73
2023/07/22 07:09:52;;;;;;;2.42;1.80;;;32.40;39.10;;;;;;5010682;28;20528;-73
2023/07/22 07:12:18;;;;;;;2.38;1.70;;;32.30;40.70;;;;;;5015916;28;20029;-73
2023/07/22 07:14:43;;;;;;;2.05;1.77;;;32.60;39.20;;;;;;5016397;28;20033;-73
2023/07/22 07:17:09;;;;;;;2.45;1.58;;;32.50;39.00;;;;;;5015199;28;20521;-72
2023/07/22 07:19:35;;;;;;;2.08;1.75;;;32.30;39.40;;;;;;5015118;28;20072;-73
2023/07/22 07:22:00;;;;;;;2.40;1.70;;;32.60;38.70;;;;;;5015337;28;20038;-73
2023/07/22 07:24:27;;;;;;;4.78;1.80;;;32.30;38.00;;;;;;5014475;28;20034;-73
2023/07/22 07:26:52;;;;;;;3.72;1.65;;;32.10;38.30;;;;;;5015019;28;20030;-72
2023/07/22 07:29:18;;;;;;;3.20;1.50;;;31.60;38.10;;;;;;5015018;28;20018;-73
2023/07/22 07:31:44;;;;;;;3.28;1.67;;;31.30;38.90;;;;;;5015262;28;20454;-73
2023/07/22 07:34:09;;;;;;;9.00;1.60;;;31.40;39.20;;;;;;5014579;28;20470;-72
2023/07/22 07:36:35;;;;;;;2.95;1.67;;;31.70;39.10;;;;;;5015016;28;20022;-73
2023/07/22 07:39:00;;;;;;;3.72;1.70;;;31.70;39.60;;;;;;5014744;28;20526;-74
2023/07/22 07:41:26;;;;;;;5.88;1.65;;;31.90;38.70;;;;;;5014358;28;20044;-73
2023/07/22 07:43:52;;;;;;;3.58;2.00;;;32.30;39.10;;;;;;5014759;28;20401;-73
2023/07/22 07:46:21;;;;;;;3.78;2.00;;;32.30;38.50;;;;;;5013622;28;20026;-73
2023/07/22 07:48:50;;;;;;;5.00;2.00;;;32.30;38.20;;;;;;5014680;28;20030;-73
2023/07/22 07:51:17;;;;;;;3.17;2.03;;;32.30;38.30;;;;;;5014257;28;20493;-73
2023/07/22 07:53:44;;;;;;;2.13;1.48;;;32.30;38.20;;;;;;5014835;28;20026;-73
2023/07/22 07:56:10;;;;;;;3.95;1.60;;;32.30;38.50;;;;;;5014214;28;20026;-72
2023/07/22 07:58:36;;;;;;;3.83;1.60;;;32.20;37.90;;;;;;5014249;28;20422;-73
2023/07/22 08:01:02;;;;;;;2.83;1.80;;;32.20;38.70;;;;;;4996763;28;20022;-73
2023/07/22 08:03:27;;;;;;;2.40;1.70;;;31.70;38.10;;;;;;5013981;28;20026;-72
2023/07/22 08:05:53;;;;;;;3.17;2.10;;;31.90;38.20;;;;;;5011086;28;20057;-72
2023/07/22 08:08:21;;;;;;;2.63;1.90;;;32.30;38.50;;;;;;5014021;28;20022;-72
2023/07/22 08:10:46;;;;;;;4.18;2.30;;;32.50;37.40;;;;;;5014025;28;20050;-72
2023/07/22 08:13:12;;;;;;;3.28;1.90;;;32.10;38.00;;;;;;5013823;28;20075;-73
2023/07/22 08:15:37;;;;;;;2.25;1.30;;;32.20;38.50;;;;;;5013936;28;20069;-73
2023/07/22 08:18:03;;;;;;;5.10;1.65;;;32.70;38.10;;;;;;5003378;28;20011;-74
2023/07/22 08:20:30;;;;;;;2.78;1.65;;;32.50;37.30;;;;;;4993908;28;20466;-73
2023/07/22 08:22:56;;;;;;;1.90;1.60;;;32.60;37.70;;;;;;4994452;28;20124;-74
2023/07/22 08:25:21;;;;;;;2.10;1.80;;;32.40;37.60;;;;;;4993691;28;20022;-73
2023/07/22 08:27:47;;;;;;;2.20;1.60;;;31.90;37.50;;;;;;4994453;28;20062;-73
2023/07/22 08:30:13;;;;;;;3.03;2.03;;;31.80;38.20;;;;;;4994108;28;20054;-71
2023/07/22 08:32:38;;;;;;;3.35;1.63;;;31.00;38.50;;;;;;4993887;28;20030;-72
2023/07/22 08:35:04;;;;;;;2.63;1.60;;;30.30;38.80;;;;;;4993974;28;20026;-73
2023/07/22 08:37:31;;;;;;;2.80;1.85;;;30.00;40.50;;;;;;4994142;28;20072;-73
2023/07/22 08:39:57;;;;;;;4.57;1.80;;;29.70;40.50;;;;;;4993867;28;20426;-73
2023/07/22 08:42:25;;;;;;;2.38;1.67;;;29.60;41.00;;;;;;4993653;28;20030;-73
2023/07/22 08:44:56;;;;;;;3.40;1.65;;;29.40;40.70;;;;;;4993903;28;20026;-73
2023/07/22 08:47:24;;;;;;;2.10;1.80;;;29.20;41.80;;;;;;4993842;28;20026;-73
2023/07/22 08:49:53;;;;;;;1.73;1.60;;;29.30;41.10;;;;;;4994240;28;20048;-72
2023/07/22 08:52:20;;;;;;;2.28;1.90;;;29.50;41.20;;;;;;4993762;28;20027;-72
2023/07/22 08:54:46;;;;;;;3.83;1.63;;;29.60;41.20;;;;;;4994024;28;20026;-72
2023/07/22 08:57:12;;;;;;;2.75;1.50;;;29.50;40.40;;;;;;4993441;28;20022;-71
2023/07/22 08:59:38;;;;;;;3.42;1.77;;;29.40;41.20;;;;;;4993913;28;20147;-72
2023/07/22 09:02:05;;;;;;;3.53;1.85;;;29.40;41.40;;;;;;4993513;28;20429;-73
2023/07/22 09:04:30;;;;;;;3.97;1.63;;;29.30;41.10;;;;;;4993033;28;20319;-73
2023/07/22 09:06:57;;;;;;;2.15;1.70;;;29.20;41.60;;;;;;4999851;28;20046;-72
2023/07/22 09:09:25;;;;;;;4.28;1.70;;;28.90;41.10;;;;;;5012513;28;20042;-73
2023/07/22 09:11:51;;;;;;;2.63;1.73;;;28.80;41.60;;;;;;5013350;28;20029;-73
2023/07/22 09:14:19;;;;;;;2.70;1.50;;;28.80;41.70;;;;;;5012566;28;20033;-73
2023/07/22 09:16:45;;;;;;;3.38;1.70;;;28.70;41.30;;;;;;5013255;28;20080;-73
2023/07/22 09:19:11;;;;;;;2.42;1.67;;;28.50;42.10;;;;;;5013183;28;20036;-73
2023/07/22 09:21:37;;;;;;;2.72;1.40;;;28.50;41.90;;;;;;5012671;28;20117;-72
2023/07/22 09:24:19;;;;;;;1.92;1.65;;;28.40;41.20;;;;;;5013130;28;20109;-73
2023/07/22 09:26:45;;;;;;;2.00;1.52;;;28.30;41.50;;;;;;5011955;28;20038;-74
2023/07/22 09:29:10;;;;;;;1.98;1.77;;;27.80;41.90;;;;;;5011912;28;20022;-73
2023/07/22 09:31:52;;;;;;;2.38;1.63;;;27.50;42.20;;;;;;5012312;28;20030;-73
2023/07/22 09:34:18;;;;;;;2.22;1.75;;;27.30;42.50;;;;;;5012248;28;20030;-73
2023/07/22 09:36:52;;;;;;;1.75;1.40;;;27.20;42.80;;;;;;5012708;28;20049;-72
2023/07/22 09:39:18;;;;;;;2.28;1.95;;;27.20;43.20;;;;;;5012351;28;20026;-72
2023/07/22 09:41:43;;;;;;;2.00;1.50;;;27.30;43.80;;;;;;5012756;28;20029;-73
2023/07/22 09:44:13;;;;;;;3.35;1.55;;;27.40;44.10;;;;;;5012845;28;20030;-73
2023/07/22 09:46:39;;;;;;;2.85;2.13;;;27.40;44.00;;;;;;5012354;28;20042;-72
2023/07/22 09:49:08;;;;;;;3.65;1.73;;;27.20;43.40;;;;;;5012645;28;20026;-73
2023/07/22 09:51:38;;;;;;;4.90;1.88;;;27.40;44.40;;;;;;5012079;28;20025;-72
2023/07/22 09:54:06;;;;;;;4.05;1.65;;;27.40;43.50;;;;;;5012940;28;20101;-77
2023/07/22 09:56:32;;;;;;;4.50;1.60;;;27.40;44.20;;;;;;5012341;28;20433;-72
2023/07/22 09:58:59;;;;;;;2.25;1.63;;;27.40;44.20;;;;;;5012968;28;20093;-73
2023/07/22 10:01:25;;;;;;;1.80;1.50;;;27.20;43.10;;;;;;5012233;28;20026;-72
2023/07/22 10:03:56;;;;;;;3.05;1.65;;;27.30;43.40;;;;;;5012699;28;20113;-73
2023/07/22 10:06:27;;;;;;;1.50;1.40;;;27.40;44.60;;;;;;4996832;28;20050;-72
2023/07/22 10:08:55;;;;;;;2.38;1.67;;;27.40;43.50;;;;;;4993255;28;20065;-73
2023/07/22 10:11:26;;;;;;;2.45;1.73;;;27.30;43.30;;;;;;4995661;28;20100;-72
2023/07/22 10:13:53;;;;;;;3.13;1.80;;;27.40;43.60;;;;;;4996999;28;20029;-74
2023/07/22 10:16:19;;;;;;;2.53;1.60;;;27.40;43.40;;;;;;4997818;28;20026;-73
2023/07/22 10:18:46;;;;;;;2.13;1.50;;;27.60;42.90;;;;;;4999448;28;20398;-76
2023/07/22 10:21:13;;;;;;;2.78;1.60;;;27.70;42.70;;;;;;4996566;28;20521;-74
2023/07/22 10:23:40;;;;;;;2.83;1.80;;;27.80;42.50;;;;;;4996031;28;20122;-73
2023/07/22 10:26:06;;;;;;;2.85;1.27;;;27.80;41.10;;;;;;4996423;28;20529;-73
2023/07/22 10:28:32;;;;;;;1.98;1.40;;;28.00;41.30;;;;;;4995905;28;20081;-72
2023/07/22 10:30:59;;;;;;;8.38;1.70;;;28.10;41.50;;;;;;4996305;28;20042;-73
2023/07/22 10:33:25;;;;;;;3.33;1.63;;;28.10;40.80;;;;;;4996161;28;20034;-72
2023/07/22 10:36:07;;;;;;;3.00;1.67;;;28.10;42.00;;;;;;4996551;28;20022;-72
2023/07/22 10:38:33;;;;;;;2.70;2.08;;;28.20;41.20;;;;;;4995809;28;20459;-72
2023/07/22 10:40:59;;;;;;;2.72;1.80;;;28.20;40.90;;;;;;4979410;28;20054;-73
2023/07/22 10:43:29;;;;;;;4.43;1.70;;;28.40;40.70;;;;;;4995867;28;20072;-72
2023/07/22 10:45:56;;;;;;;1.40;1.30;;;28.30;40.30;;;;;;4996242;28;20023;-73
2023/07/22 10:48:27;;;;;;;2.05;1.30;;;28.30;40.10;;;;;;4995886;28;20030;-72
2023/07/22 10:50:58;;;;;;;4.13;1.70;;;28.40;39.80;;;;;;4996505;28;20409;-73
2023/07/22 10:53:23;;;;;;;1.60;1.50;;;28.50;39.00;;;;;;4995907;28;20033;-73
2023/07/22 10:56:04;;;;;;;1.75;1.30;;;28.60;39.00;;;;;;4995808;28;20019;-73
2023/07/22 10:58:50;;;;;;;2.30;1.63;;;28.60;38.00;;;;;;4995535;28;20125;-72
2023/07/22 11:01:24;;;;;;;1.98;1.40;;;28.50;37.60;;;;;;4994888;28;20441;-73
2023/07/22 11:04:17;;;;;;;2.80;1.60;;;28.40;37.90;;;;;;4995980;28;20030;-73
2023/07/22 11:06:50;;;;;;;4.25;1.50;;;28.30;38.20;;;;;;4995454;28;20074;-73
2023/07/22 11:09:43;;;;;;;2.28;1.35;;;28.20;38.10;;;;;;4995887;28;20479;-73
2023/07/22 11:12:20;;;;;;;1.75;1.35;;;28.30;38.40;;;;;;4992284;28;20049;-72
2023/07/22 11:14:50;;;;;;;2.00;1.70;;;28.30;39.80;;;;;;4995398;28;20451;-72
2023/07/22 11:17:17;;;;;;;4.75;1.88;;;28.30;38.90;;;;;;5008618;28;20447;-74
2023/07/22 11:19:43;;;;;;;2.60;1.40;;;28.20;40.50;;;;;;5014902;28;20104;-74
2023/07/22 11:22:10;;;;;;;1.75;1.52;;;28.20;40.30;;;;;;5015044;28;20030;-73
2023/07/22 11:24:36;;;;;;;3.40;1.50;;;28.30;40.10;;;;;;5014778;28;20052;-73
2023/07/22 11:27:08;;;;;;;2.63;1.65;;;28.50;40.20;;;;;;5015139;28;20057;-73
2023/07/22 11:29:34;;;;;;;2.05;1.65;;;28.60;40.10;;;;;;5014729;28;20033;-72
2023/07/22 11:31:59;;;;;;;3.95;1.60;;;28.60;38.80;;;;;;5013885;28;20369;-73
2023/07/22 11:34:26;;;;;;;2.40;1.75;;;28.60;38.80;;;;;;5014651;28;20022;-73
2023/07/22 11:36:53;;;;;;;3.55;1.75;;;28.60;39.30;;;;;;5014934;28;20442;-73
2023/07/22 11:39:23;;;;;;;2.40;1.60;;;28.70;39.50;;;;;;5015089;28;20022;-73
2023/07/22 11:41:50;;;;;;;3.67;1.60;;;28.90;39.40;;;;;;5014358;28;20147;-73
2023/07/22 11:44:22;;;;;;;2.40;1.70;;;29.00;39.00;;;;;;5014917;28;20028;-73
2023/07/22 11:47:03;;;;;;;2.10;1.70;;;29.00;39.10;;;;;;5014318;28;20022;-75
2023/07/22 11:49:36;;;;;;;3.72;1.92;;;29.20;39.30;;;;;;5014247;28;20101;-73
2023/07/22 11:52:03;;;;;;;3.65;1.90;;;29.20;39.40;;;;;;5014549;28;20466;-73
2023/07/22 11:54:31;;;;;;;4.00;1.90;;;28.90;39.00;;;;;;5014184;28;20018;-72
2023/07/22 11:56:57;;;;;;;4.30;1.77;;;28.80;39.60;;;;;;5014178;28;20068;-73
2023/07/22 11:59:39;;;;;;;2.47;1.70;;;28.90;40.10;;;;;;5014540;28;20053;-73
2023/07/22 12:02:05;;;;;;;2.58;1.80;;;29.00;39.00;;;;;;5014616;28;20028;-73
2023/07/22 12:04:33;;;;;;;3.28;1.77;;;29.00;38.90;;;;;;5013901;28;20033;-73
2023/07/22 12:06:59;;;;;;;4.68;2.45;;;29.10;39.00;;;;;;5013979;28;20046;-74
2023/07/22 12:09:25;;;;;;;1.55;1.40;;;28.90;38.80;;;;;;5003813;28;20022;-73
2023/07/22 12:11:58;;;;;;;5.97;1.83;;;28.70;38.40;;;;;;4994926;28;20176;-74
2023/07/22 12:14:32;;;;;;;3.90;1.73;;;28.70;38.20;;;;;;4995462;28;20101;-73
2023/07/22 12:16:58;;;;;;;4.60;3.17;;;28.50;37.80;;;;;;4995088;28;20340;-73
2023/07/22 12:19:23;;;;;;;2.88;2.17;;;28.50;38.20;;;;;;4994329;28;20078;-73
2023/07/22 12:21:49;;;;;;;3.70;1.80;;;28.60;39.40;;;;;;4994070;28;20038;-72
2023/07/22 12:24:15;;;;;;;4.57;3.58;;;28.60;38.00;;;;;;4977266;28;20117;-73
2023/07/22 12:26:41;;;;;;;2.17;1.85;;;28.40;37.30;;;;;;4994036;28;20375;-73
2023/07/22 12:29:07;;;;;;;2.55;1.80;;;28.40;37.10;;;;;;4993588;28;20105;-73
2023/07/22 12:31:33;;;;;;;1.95;1.50;;;28.50;37.80;;;;;;4993991;28;20026;-73
2023/07/22 12:33:59;;;;;;;3.22;2.00;;;28.50;38.20;;;;;;4993872;28;20113;-74
2023/07/22 12:36:25;;;;;;;4.03;1.73;;;28.40;38.20;;;;;;4994128;28;20145;-73
2023/07/22 12:38:51;;;;;;;2.08;1.40;;;28.40;37.80;;;;;;4993668;28;20026;-72
2023/07/22 12:41:16;;;;;;;2.17;1.50;;;28.40;37.30;;;;;;4993573;28;20122;-73
2023/07/22 12:43:42;;;;;;;2.58;1.67;;;28.40;37.40;;;;;;4993400;28;20454;-72
2023/07/22 12:46:08;;;;;;;1.85;1.40;;;28.40;37.50;;;;;;4994079;28;20097;-73